Time;durP1;ratioP1;P1;durP2;ratioP2;P2;SDS_P1;SDS_P2;PMS_P1;PMS_P2;Temp;Humidity;BMP_temperature;BMP_pressure;BME280_temperature;BME280_humidity;BME280_pressure;Samples;Min_cycle;Max_cycle;Signal;HPM_P1;HPM_P2
2021/07/19 00:01:47;;;;;;;5.05;2.58;;;;;;;;;;21171547;28;20048;-67
2021/07/19 00:11:50;;;;;;;4.88;2.78;;;;;;;;;;21151361;28;20051;-72
2021/07/19 00:21:52;;;;;;;4.13;2.40;;;;;;;;;;21167812;28;20139;-69
2021/07/19 00:31:54;;;;;;;4.68;3.80;;;29.50;29.60;;;;;;21149758;28;20180;-72
2021/07/19 00:41:56;;;;;;;6.82;4.38;;;28.30;31.30;;;;;;21167513;28;20051;-71
2021/07/19 00:51:57;;;;;;;6.35;2.83;;;28.20;31.90;;;;;;21165063;28;20052;-70
2021/07/19 01:02:02;;;;;;;6.50;3.10;;;28.20;32.50;;;;;;21165393;28;20044;-66
2021/07/19 01:12:06;;;;;;;5.15;2.80;;;28.00;33.00;;;;;;21166119;28;20055;-66
2021/07/19 01:22:34;;;;;;;4.95;3.42;;;27.80;33.20;;;;;;21168215;28;20537;-64
2021/07/19 01:32:46;;;;;;;5.97;3.30;;;27.90;33.10;;;;;;21162805;28;20055;-69
2021/07/19 01:42:48;;;;;;;7.93;3.45;;;27.60;33.50;;;;;;21162657;28;20096;-66
2021/07/19 01:52:50;;;;;;;6.10;3.83;;;28.10;32.70;;;;;;21161957;28;20074;-66
2021/07/19 02:02:52;;;;;;;4.60;3.15;;;;;;;;;;21161942;28;20087;-65
2021/07/19 02:12:56;;;;;;;7.18;3.10;;;27.50;32.90;;;;;;21180337;28;20126;-66
2021/07/19 02:22:59;;;;;;;3.90;2.65;;;26.70;34.20;;;;;;21195344;28;20062;-70
2021/07/19 02:33:01;;;;;;;4.38;2.50;;;26.20;35.20;;;;;;21177749;28;20092;-65
2021/07/19 02:43:07;;;;;;;4.00;2.60;;;26.00;35.40;;;;;;21178063;28;20108;-64
2021/07/19 02:53:15;;;;;;;8.30;3.90;;;25.80;35.40;;;;;;21176144;28;20123;-71
2021/07/19 03:03:28;;;;;;;6.53;3.05;;;25.50;35.60;;;;;;21177444;28;20044;-69
2021/07/19 03:13:56;;;;;;;4.97;2.83;;;25.00;36.30;;;;;;21173658;28;20070;-68
2021/07/19 03:24:18;;;;;;;9.57;2.83;;;24.90;36.60;;;;;;21155707;28;20062;-63
2021/07/19 03:34:35;;;;;;;6.57;3.17;;;24.70;37.20;;;;;;21171441;28;20048;-64
2021/07/19 03:44:50;;;;;;;6.90;2.83;;;24.40;38.50;;;;;;21175884;28;20077;-75
2021/07/19 03:54:55;;;;;;;4.82;3.10;;;24.40;39.00;;;;;;21191513;28;20047;-65
2021/07/19 04:05:07;;;;;;;4.43;2.75;;;;;;;;;;21169686;28;20551;-64
2021/07/19 04:15:17;;;;;;;5.55;2.90;;;;;;;;;;21169825;28;20139;-73
2021/07/19 04:25:20;;;;;;;5.82;3.17;;;;;;;;;;21167795;28;20463;-67
2021/07/19 04:35:24;;;;;;;3.88;2.90;;;;;;;;;;21150159;28;20085;-72
2021/07/19 04:45:28;;;;;;;4.60;2.90;;;;;;;;;;21166322;28;20051;-67
2021/07/19 04:55:39;;;;;;;6.47;3.90;;;;;;;;;;21166702;28;20047;-73
2021/07/19 05:05:43;;;;;;;8.80;3.35;;;;;;;;;;21166348;28;20087;-66
2021/07/19 05:15:45;;;;;;;7.78;3.08;;;;;;;;;;21188583;28;20053;-65
2021/07/19 05:25:48;;;;;;;7.75;3.38;;;;;;;;;;21178867;28;20060;-67
2021/07/19 05:35:54;;;;;;;6.85;3.88;;;;;;;;;;21190678;28;20074;-74
2021/07/19 05:46:03;;;;;;;8.15;3.67;;;;;;;;;;21179502;28;20051;-73
2021/07/19 05:56:05;;;;;;;;;;;;;;;;;;21163074;28;20481;-70
2021/07/19 06:06:07;;;;;;;7.55;4.78;;;;;;;;;;21178890;28;20010;-73
2021/07/19 06:16:10;;;;;;;9.77;4.35;;;;;;;;;;21179265;28;20136;-70
2021/07/19 06:26:13;;;;;;;8.30;5.15;;;;;;;;;;21179340;28;20059;-66
2021/07/19 06:36:24;;;;;;;10.52;4.22;;;;;;;;;;21182329;28;20127;-71
2021/07/19 06:46:26;;;;;;;10.13;4.83;;;;;;;;;;21185222;28;20051;-61
2021/07/19 06:56:31;;;;;;;7.40;3.73;;;;;;;;;;21176513;28;20299;-63
2021/07/19 07:06:32;;;;;;;8.35;3.97;;;25.90;40.20;;;;;;21156582;28;20047;-74
2021/07/19 07:16:45;;;;;;;7.88;4.30;;;25.30;41.40;;;;;;21178082;28;20507;-66
2021/07/19 07:26:47;;;;;;;8.30;4.30;;;25.90;40.10;;;;;;21157779;28;20083;-68
2021/07/19 07:36:53;;;;;;;6.90;4.50;;;26.60;39.00;;;;;;21179361;28;20069;-65
2021/07/19 07:46:56;;;;;;;10.77;4.30;;;27.10;38.30;;;;;;21175007;28;20047;-66
2021/07/19 07:57:02;;;;;;;7.13;4.10;;;27.60;37.40;;;;;;21170070;28;20043;-68
2021/07/19 08:07:05;;;;;;;7.60;4.60;;;28.00;36.70;;;;;;21171052;28;20047;-70
2021/07/19 08:17:11;;;;;;;8.07;4.30;;;28.30;36.50;;;;;;21169472;28;20051;-71
2021/07/19 08:27:13;;;;;;;8.43;3.92;;;28.70;35.50;;;;;;21167950;28;20180;-65
2021/07/19 08:37:17;;;;;;;7.22;3.92;;;29.10;35.10;;;;;;21158426;28;20100;-68
2021/07/19 08:47:21;;;;;;;10.52;4.75;;;29.40;34.50;;;;;;21167181;28;20138;-65
2021/07/19 08:57:23;;;;;;;5.95;4.40;;;29.80;33.90;;;;;;21168788;28;20043;-68
2021/07/19 09:07:27;;;;;;;9.88;4.28;;;30.10;33.50;;;;;;21165319;28;20517;-66
2021/07/19 09:17:30;;;;;;;8.40;4.65;;;30.40;32.80;;;;;;21137740;28;20044;-67
2021/07/19 09:27:32;;;;;;;7.75;4.50;;;30.60;32.30;;;;;;21098323;28;20062;-68
2021/07/19 09:37:40;;;;;;;10.88;4.43;;;30.90;31.80;;;;;;21096972;28;20130;-67
2021/07/19 09:47:45;;;;;;;9.25;4.55;;;31.00;31.90;;;;;;21096992;28;20056;-68
2021/07/19 09:57:56;;;;;;;5.40;3.13;;;31.30;29.10;;;;;;21098466;28;20136;-66
2021/07/19 10:07:59;;;;;;;6.93;3.65;;;31.70;27.50;;;;;;21092390;28;20044;-65
2021/07/19 10:18:08;;;;;;;9.32;3.83;;;31.50;28.90;;;;;;21093097;28;20127;-68
2021/07/19 10:28:13;;;;;;;7.85;3.90;;;31.70;28.30;;;;;;21094104;28;20052;-63
2021/07/19 10:38:20;;;;;;;6.32;3.40;;;31.60;28.60;;;;;;21092904;28;20098;-67
2021/07/19 10:48:23;;;;;;;10.07;3.67;;;31.90;28.00;;;;;;21092969;28;20055;-67
2021/07/19 10:58:48;;;;;;;5.90;4.22;;;31.70;27.60;;;;;;21097980;28;20381;-67
2021/07/19 11:08:50;;;;;;;7.30;4.25;;;32.00;27.10;;;;;;21099468;28;20052;-65
2021/07/19 11:18:54;;;;;;;8.65;4.28;;;32.10;26.80;;;;;;21087275;28;20523;-67
2021/07/19 11:28:57;;;;;;;7.57;3.88;;;32.10;26.70;;;;;;21086542;28;20102;-67
2021/07/19 11:39:03;;;;;;;8.15;4.40;;;32.00;26.20;;;;;;21084821;28;20404;-67
2021/07/19 11:49:11;;;;;;;6.53;3.92;;;32.10;25.30;;;;;;21084363;28;20048;-68
2021/07/19 11:59:18;;;;;;;8.32;4.43;;;32.40;24.60;;;;;;21083488;28;20484;-65
2021/07/19 12:09:20;;;;;;;7.22;3.70;;;32.60;24.60;;;;;;21084358;28;20052;-70
2021/07/19 12:19:22;;;;;;;9.63;3.88;;;32.90;23.70;;;;;;21082494;28;20052;-69
2021/07/19 12:29:26;;;;;;;6.63;3.58;;;33.10;22.80;;;;;;21083877;28;20099;-72
2021/07/19 12:39:31;;;;;;;7.65;3.53;;;33.30;21.50;;;;;;21083478;28;20098;-69
2021/07/19 12:49:40;;;;;;;7.30;3.40;;;33.60;20.50;;;;;;21082900;28;20059;-72
2021/07/19 12:59:48;;;;;;;8.60;3.45;;;33.60;20.00;;;;;;21093371;28;20500;-70
2021/07/19 13:09:55;;;;;;;7.78;3.38;;;33.90;18.40;;;;;;21082689;28;20044;-68
2021/07/19 13:20:05;;;;;;;5.25;3.35;;;34.30;18.20;;;;;;21079572;28;20048;-67
2021/07/19 13:30:07;;;;;;;8.23;3.08;;;34.30;17.80;;;;;;21080040;28;20052;-67
2021/07/19 13:40:11;;;;;;;6.25;3.55;;;34.50;17.10;;;;;;21079460;28;20051;-67
2021/07/19 13:50:12;;;;;;;5.32;2.78;;;34.60;16.40;;;;;;21078230;28;20091;-68
2021/07/19 14:00:16;;;;;;;6.43;2.78;;;34.70;16.00;;;;;;21079694;28;20048;-68
2021/07/19 14:10:18;;;;;;;4.82;2.75;;;34.90;15.80;;;;;;21094350;28;20101;-68
2021/07/19 14:20:20;;;;;;;3.78;2.55;;;35.10;15.40;;;;;;21097708;28;20158;-69
2021/07/19 14:30:27;;;;;;;5.07;3.30;;;35.20;14.80;;;;;;21100685;28;20409;-65
2021/07/19 14:40:29;;;;;;;4.27;2.70;;;35.30;15.00;;;;;;21102687;28;20052;-69
2021/07/19 14:50:31;;;;;;;5.78;3.20;;;35.40;15.70;;;;;;21091708;28;20051;-67
2021/07/19 15:00:33;;;;;;;3.95;3.10;;;35.60;15.60;;;;;;21090838;28;20484;-68
2021/07/19 15:10:34;;;;;;;6.10;3.47;;;35.80;16.10;;;;;;21088418;28;20051;-70
2021/07/19 15:20:36;;;;;;;5.93;3.47;;;35.70;16.10;;;;;;21087750;28;20048;-68
2021/07/19 15:30:37;;;;;;;4.57;3.15;;;35.70;16.60;;;;;;21086811;28;20099;-70
2021/07/19 15:40:38;;;;;;;5.25;3.25;;;35.60;16.90;;;;;;21085907;28;20044;-69
2021/07/19 15:50:41;;;;;;;4.47;3.08;;;35.70;16.90;;;;;;21085618;28;20055;-67
2021/07/19 16:00:43;;;;;;;6.05;3.58;;;35.70;16.90;;;;;;21084113;28;20044;-68
2021/07/19 16:10:45;;;;;;;5.40;3.65;;;35.60;17.50;;;;;;21083201;28;20052;-68
2021/07/19 16:20:46;;;;;;;5.50;3.67;;;35.50;17.80;;;;;;21082440;28;20055;-62
2021/07/19 16:30:48;;;;;;;5.00;3.38;;;35.50;18.00;;;;;;21085102;28;20212;-58
2021/07/19 16:40:49;;;;;;;5.80;3.47;;;35.50;18.00;;;;;;21093462;28;20051;-65
2021/07/19 16:50:51;;;;;;;5.82;3.53;;;35.30;17.80;;;;;;21079708;28;20044;-65
2021/07/19 17:00:52;;;;;;;5.50;3.50;;;35.30;17.90;;;;;;21077970;28;20048;-64
2021/07/19 17:10:54;;;;;;;5.63;3.70;;;35.30;18.00;;;;;;21079786;28;20449;-65
2021/07/19 17:20:56;;;;;;;8.45;5.57;;;35.20;18.40;;;;;;21078930;28;20044;-66
2021/07/19 17:30:57;;;;;;;9.30;4.72;;;35.10;18.40;;;;;;21076486;28;20048;-68
2021/07/19 17:41:03;;;;;;;5.20;3.90;;;35.00;18.50;;;;;;21089136;28;20043;-69
2021/07/19 17:51:05;;;;;;;4.28;3.63;;;34.80;18.50;;;;;;21094605;28;20117;-66
2021/07/19 18:01:07;;;;;;;4.70;3.60;;;34.70;18.60;;;;;;21094002;28;20074;-67
2021/07/19 18:11:11;;;;;;;5.22;3.65;;;34.70;18.70;;;;;;21091166;28;20056;-68
2021/07/19 18:21:14;;;;;;;5.00;4.00;;;34.60;18.90;;;;;;21091121;28;20052;-67
2021/07/19 18:31:15;;;;;;;5.93;4.10;;;34.50;19.10;;;;;;21090704;28;20481;-66
2021/07/19 18:41:17;;;;;;;7.32;4.35;;;34.40;19.20;;;;;;21089461;28;20452;-65
2021/07/19 18:51:19;;;;;;;5.38;3.70;;;34.30;19.20;;;;;;21089467;28;20102;-66
2021/07/19 19:01:21;;;;;;;7.00;3.85;;;34.20;19.30;;;;;;21088549;28;20086;-70
2021/07/19 19:11:25;;;;;;;8.88;4.43;;;34.00;19.80;;;;;;21089505;28;20477;-66
2021/07/19 19:21:27;;;;;;;7.35;3.85;;;33.80;20.10;;;;;;21089247;28;20135;-72
2021/07/19 19:31:29;;;;;;;8.05;4.43;;;33.50;20.50;;;;;;21086717;28;20047;-73
2021/07/19 19:41:30;;;;;;;8.07;4.25;;;33.30;20.70;;;;;;21086743;28;20134;-74
2021/07/19 19:51:33;;;;;;;7.88;4.40;;;33.10;20.80;;;;;;21085792;28;20052;-72
2021/07/19 20:01:36;;;;;;;8.38;4.18;;;32.90;21.00;;;;;;21084870;28;20076;-71
2021/07/19 20:11:38;;;;;;;8.50;4.40;;;32.60;21.30;;;;;;21083872;28;20098;-71
2021/07/19 20:21:39;;;;;;;7.43;4.45;;;32.40;21.30;;;;;;21112745;28;20055;-70
2021/07/19 20:31:41;;;;;;;8.32;4.70;;;32.20;21.40;;;;;;21166591;28;20047;-66
2021/07/19 20:41:43;;;;;;;8.63;5.80;;;32.10;21.70;;;;;;21164865;28;20080;-70
2021/07/19 20:51:45;;;;;;;7.18;4.95;;;31.80;21.90;;;;;;21165303;28;20047;-74
2021/07/19 21:01:47;;;;;;;6.28;5.00;;;31.60;22.20;;;;;;21166326;28;20079;-67
2021/07/19 21:11:49;;;;;;;7.85;4.53;;;31.40;22.40;;;;;;21165253;28;20048;-72
2021/07/19 21:21:51;;;;;;;10.45;5.38;;;31.30;22.40;;;;;;21164700;28;20110;-72
2021/07/19 21:31:52;;;;;;;9.45;5.70;;;31.10;22.80;;;;;;21166201;28;20521;-71
2021/07/19 21:41:54;;;;;;;7.57;4.75;;;31.00;23.10;;;;;;21200138;28;20048;-72
2021/07/19 21:51:56;;;;;;;7.30;5.30;;;30.90;23.30;;;;;;21166613;28;20048;-73
2021/07/19 22:01:59;;;;;;;11.98;6.13;;;30.80;23.40;;;;;;21164485;28;20083;-70
2021/07/19 22:12:01;;;;;;;8.13;5.95;;;30.70;23.20;;;;;;21163833;28;21087;-71
2021/07/19 22:22:06;;;;;;;21.13;18.92;;;30.60;23.60;;;;;;21148637;28;20048;-69
2021/07/19 22:32:09;;;;;;;14.07;7.57;;;30.30;25.00;;;;;;21177535;28;20110;-71
2021/07/19 22:42:11;;;;;;;7.45;5.60;;;30.10;25.40;;;;;;21176073;28;20047;-72
2021/07/19 22:52:12;;;;;;;13.00;9.27;;;30.00;25.10;;;;;;21156532;28;20055;-72
2021/07/19 23:02:15;;;;;;;12.40;9.27;;;29.90;25.30;;;;;;21174913;28;20124;-69
2021/07/19 23:12:17;;;;;;;16.90;10.60;;;29.70;25.40;;;;;;21176726;28;20525;-69
2021/07/19 23:22:20;;;;;;;8.63;5.40;;;29.50;25.60;;;;;;21171696;28;20450;-66
2021/07/19 23:32:22;;;;;;;10.60;5.35;;;29.10;25.80;;;;;;21151158;28;20059;-67
2021/07/19 23:42:25;;;;;;;11.20;6.15;;;28.90;26.40;;;;;;21169250;28;20051;-66
2021/07/19 23:52:28;;;;;;;9.02;5.35;;;28.80;26.80;;;;;;21170165;28;20048;-67
